PPCOA SBCH-SBCT
Flight info
| Callsign | PPCOA |
|---|---|
| Flight time | N/A |
| Altitude | 35000 |
| Route | IMBIM DCT PUMLI DCT UMKUR DCT DOPOM DCT DOLDI DCT VUGUP |
| Aircraft | CL60/M-SBDE1E2E3FGHIJ4J5J7M3RWXYZ/LB1V1D1 |
Departure
| Time | 2026-04-19 00:59 |
|---|---|
| Airport | Serafin Enoss Bertaso Airport (SBCH) |
Arrival
| Time | N/A |
|---|---|
| Airport | Curitiba-Afonso Pena International Airport (SBCT) |
| Time | Latitude | Longitude | Altitude | Speed | Heading |
|---|---|---|---|---|---|
| 2026-04-19 00:53 | -27.13289 | -52.65928 | 2151 ft | 0 kts | 280° |
| 2026-04-19 00:55 | -27.13288 | -52.65935 | 2151 ft | 4 kts | 277° |
| 2026-04-19 00:56 | -27.13288 | -52.65987 | 2151 ft | 8 kts | 277° |
| 2026-04-19 00:56 | -27.13276 | -52.66061 | 2151 ft | 11 kts | 278° |
| 2026-04-19 00:56 | -27.13320 | -52.66108 | 2151 ft | 10 kts | 189° |
| 2026-04-19 00:56 | -27.13345 | -52.66182 | 2151 ft | 12 kts | 278° |
| 2026-04-19 00:57 | -27.13330 | -52.66294 | 2151 ft | 16 kts | 279° |
| 2026-04-19 00:57 | -27.13310 | -52.66433 | 2151 ft | 19 kts | 279° |
| 2026-04-19 00:57 | -27.13287 | -52.66594 | 2151 ft | 22 kts | 279° |
| 2026-04-19 00:57 | -27.13263 | -52.66772 | 2151 ft | 24 kts | 279° |
| 2026-04-19 00:58 | -27.13223 | -52.66881 | 2151 ft | 7 kts | 250° |
| 2026-04-19 00:58 | -27.13253 | -52.66834 | 2151 ft | 19 kts | 100° |
| 2026-04-19 00:58 | -27.13319 | -52.66380 | 2151 ft | 101 kts | 98° |
| 2026-04-19 00:58 | -27.13468 | -52.65321 | 2157 ft | 168 kts | 98° |
| 2026-04-19 00:59 | -27.13652 | -52.63949 | 2626 ft | 191 kts | 98° |
| 2026-04-19 00:59 | -27.13874 | -52.62383 | 3134 ft | 224 kts | 100° |
| 2026-04-19 00:59 | -27.14169 | -52.60439 | 3313 ft | 271 kts | 100° |
| 2026-04-19 00:59 | -27.14492 | -52.58297 | 4053 ft | 290 kts | 100° |
| 2026-04-19 01:00 | -27.14836 | -52.56012 | 4995 ft | 300 kts | 100° |
| 2026-04-19 01:00 | -27.15183 | -52.53701 | 5962 ft | 307 kts | 100° |
| 2026-04-19 01:00 | -27.15539 | -52.51326 | 6908 ft | 313 kts | 100° |
| 2026-04-19 01:00 | -27.15902 | -52.48892 | 7793 ft | 318 kts | 100° |
| 2026-04-19 01:01 | -27.16268 | -52.46437 | 8626 ft | 323 kts | 100° |
| 2026-04-19 01:01 | -27.16640 | -52.43932 | 9412 ft | 328 kts | 100° |
| 2026-04-19 01:01 | -27.17017 | -52.41382 | 10157 ft | 333 kts | 100° |
| 2026-04-19 01:01 | -27.17394 | -52.38819 | 10858 ft | 338 kts | 100° |
| 2026-04-19 01:02 | -27.17780 | -52.36186 | 11533 ft | 343 kts | 101° |
| 2026-04-19 01:02 | -27.18179 | -52.33473 | 12155 ft | 350 kts | 100° |
| 2026-04-19 01:02 | -27.18584 | -52.30700 | 12753 ft | 357 kts | 101° |
| 2026-04-19 01:02 | -27.18985 | -52.27959 | 13377 ft | 362 kts | 101° |
| 2026-04-19 01:03 | -27.19399 | -52.25127 | 13995 ft | 367 kts | 101° |
| 2026-04-19 01:03 | -27.19813 | -52.22286 | 14645 ft | 370 kts | 101° |
| 2026-04-19 01:03 | -27.20227 | -52.19435 | 15268 ft | 374 kts | 102° |
| 2026-04-19 01:03 | -27.20645 | -52.16558 | 15875 ft | 378 kts | 102° |
| 2026-04-19 01:04 | -27.21070 | -52.13632 | 16479 ft | 381 kts | 102° |
| 2026-04-19 01:04 | -27.21498 | -52.10675 | 17085 ft | 384 kts | 102° |
| 2026-04-19 01:04 | -27.21929 | -52.07695 | 17674 ft | 387 kts | 102° |
| 2026-04-19 01:04 | -27.22132 | -52.04689 | 18243 ft | 393 kts | 89° |
| 2026-04-19 01:05 | -27.21587 | -52.01646 | 18777 ft | 401 kts | 71° |
| 2026-04-19 01:05 | -27.20502 | -51.98753 | 19271 ft | 406 kts | 68° |
| 2026-04-19 01:05 | -27.19353 | -51.95808 | 19789 ft | 410 kts | 68° |
| 2026-04-19 01:05 | -27.18222 | -51.92895 | 20297 ft | 413 kts | 68° |
| 2026-04-19 01:06 | -27.17161 | -51.90166 | 20744 ft | 416 kts | 68° |
| 2026-04-19 01:06 | -27.16005 | -51.87192 | 21213 ft | 419 kts | 68° |
| 2026-04-19 01:06 | -27.14964 | -51.84516 | 21614 ft | 423 kts | 68° |
| 2026-04-19 01:06 | -27.13920 | -51.81837 | 22010 ft | 426 kts | 68° |
| 2026-04-19 01:07 | -27.13280 | -51.80194 | 22256 ft | 427 kts | 68° |
| 2026-04-19 01:07 | -27.12168 | -51.77342 | 22674 ft | 430 kts | 68° |
| 2026-04-19 01:07 | -27.11602 | -51.75890 | 22880 ft | 432 kts | 68° |
| 2026-04-19 01:07 | -27.10505 | -51.73079 | 23271 ft | 435 kts | 68° |
| 2026-04-19 01:08 | -27.09287 | -51.69959 | 23704 ft | 438 kts | 68° |
| 2026-04-19 01:08 | -27.08064 | -51.66829 | 24154 ft | 441 kts | 68° |
| 2026-04-19 01:08 | -27.06828 | -51.63670 | 24584 ft | 445 kts | 68° |
| 2026-04-19 01:08 | -27.05573 | -51.60462 | 25004 ft | 449 kts | 68° |
| 2026-04-19 01:09 | -27.04322 | -51.57268 | 25416 ft | 452 kts | 69° |
| 2026-04-19 01:09 | -27.03047 | -51.54015 | 25802 ft | 456 kts | 69° |
| 2026-04-19 01:09 | -27.01769 | -51.50757 | 26204 ft | 460 kts | 69° |
| 2026-04-19 01:09 | -27.00487 | -51.47491 | 26602 ft | 463 kts | 69° |
| 2026-04-19 01:10 | -26.99178 | -51.44161 | 26995 ft | 466 kts | 69° |
| 2026-04-19 01:10 | -26.97877 | -51.40852 | 27366 ft | 469 kts | 69° |
| 2026-04-19 01:10 | -26.96556 | -51.37495 | 27731 ft | 472 kts | 69° |
| 2026-04-19 01:10 | -26.95232 | -51.34134 | 28086 ft | 475 kts | 69° |
| 2026-04-19 01:11 | -26.93878 | -51.30700 | 28441 ft | 479 kts | 69° |
| 2026-04-19 01:11 | -26.92519 | -51.27254 | 28791 ft | 482 kts | 69° |
| 2026-04-19 01:11 | -26.91158 | -51.23808 | 29141 ft | 484 kts | 69° |
| 2026-04-19 01:11 | -26.89800 | -51.20372 | 29486 ft | 487 kts | 69° |
| 2026-04-19 01:12 | -26.88408 | -51.16852 | 29823 ft | 489 kts | 69° |
| 2026-04-19 01:12 | -26.87000 | -51.13296 | 30129 ft | 491 kts | 69° |
| 2026-04-19 01:12 | -26.85614 | -51.09798 | 30418 ft | 494 kts | 69° |
| 2026-04-19 01:12 | -26.84213 | -51.06265 | 30704 ft | 496 kts | 69° |
| 2026-04-19 01:13 | -26.82825 | -51.02770 | 30981 ft | 498 kts | 69° |
| 2026-04-19 01:13 | -26.81409 | -50.99206 | 31244 ft | 500 kts | 69° |
| 2026-04-19 01:13 | -26.79993 | -50.95643 | 31505 ft | 502 kts | 69° |
| 2026-04-19 01:13 | -26.78564 | -50.92052 | 31764 ft | 503 kts | 69° |
| 2026-04-19 01:14 | -26.77145 | -50.88491 | 32015 ft | 504 kts | 69° |
| 2026-04-19 01:14 | -26.75693 | -50.84849 | 32250 ft | 506 kts | 69° |
| 2026-04-19 01:14 | -26.74253 | -50.81242 | 32469 ft | 508 kts | 69° |
| 2026-04-19 01:14 | -26.72791 | -50.77586 | 32683 ft | 509 kts | 69° |
| 2026-04-19 01:15 | -26.71320 | -50.73913 | 32890 ft | 511 kts | 69° |
| 2026-04-19 01:15 | -26.69838 | -50.70214 | 33078 ft | 512 kts | 69° |
| 2026-04-19 01:15 | -26.68351 | -50.66507 | 33255 ft | 514 kts | 69° |
| 2026-04-19 01:15 | -26.66887 | -50.62861 | 33423 ft | 515 kts | 69° |
| 2026-04-19 01:16 | -26.65404 | -50.59169 | 33587 ft | 516 kts | 69° |
| 2026-04-19 01:16 | -26.63921 | -50.55484 | 33756 ft | 517 kts | 69° |
| 2026-04-19 01:16 | -26.62454 | -50.51806 | 34109 ft | 512 kts | 70° |
| 2026-04-19 01:16 | -26.61024 | -50.48188 | 34533 ft | 505 kts | 70° |
| 2026-04-19 01:17 | -26.59664 | -50.44747 | 34636 ft | 508 kts | 70° |
| 2026-04-19 01:17 | -26.58963 | -50.42973 | 34522 ft | 513 kts | 70° |
| 2026-04-19 01:17 | -26.57719 | -50.39825 | 34171 ft | 523 kts | 69° |
| 2026-04-19 01:17 | -26.56199 | -50.35988 | 33571 ft | 528 kts | 69° |
| 2026-04-19 01:18 | -26.55151 | -50.33384 | 33137 ft | 528 kts | 68° |